createdAt,value
2024-02-13T00:02:21.335Z,98043.83
2024-02-13T00:04:53.152Z,98047.83
2024-02-13T00:07:24.909Z,98052.67
2024-02-13T00:09:56.686Z,98053.35
2024-02-13T00:12:30.847Z,98060.27
2024-02-13T00:15:05.645Z,98064.43
2024-02-13T00:17:42.228Z,98071.89
2024-02-13T00:20:16.384Z,98076.88
2024-02-13T00:22:49.144Z,98084.47
2024-02-13T00:25:21.077Z,98082.04
2024-02-13T00:27:52.876Z,98088.45
2024-02-13T00:30:24.820Z,98094.34
2024-02-13T00:32:58.703Z,98095.55
2024-02-13T00:35:30.691Z,98096.09
2024-02-13T00:38:02.679Z,98099.77
2024-02-13T00:40:34.450Z,98104.10
2024-02-13T00:43:06.845Z,98104.44
2024-02-13T00:45:38.599Z,98111.05
2024-02-13T00:48:11.671Z,98112.60
2024-02-13T00:50:45.678Z,98116.77
2024-02-13T00:53:17.882Z,98121.12
2024-02-13T00:55:50.736Z,98123.90
2024-02-13T00:58:22.499Z,98130.30
2024-02-13T01:00:55.277Z,98128.94
2024-02-13T01:03:27.145Z,98134.48
2024-02-13T01:05:59.223Z,98135.01
2024-02-13T01:08:31.103Z,98140.91
2024-02-13T01:11:03.173Z,98140.23
2024-02-13T01:13:35.033Z,98136.06
2024-02-13T01:16:08.269Z,98139.35
2024-02-13T01:18:40.154Z,98139.38
2024-02-13T01:21:15.388Z,98140.08
2024-02-13T01:23:48.207Z,98141.96
2024-02-13T01:26:20.547Z,98141.79
2024-02-13T01:28:52.346Z,98146.29
2024-02-13T01:31:24.264Z,98153.03
2024-02-13T01:33:56.178Z,98149.41
2024-02-13T01:36:28.944Z,98151.83
2024-02-13T01:39:04.195Z,98150.96
2024-02-13T01:41:36.105Z,98152.36
2024-02-13T01:44:08.104Z,98160.84
2024-02-13T01:46:40.816Z,98172.60
2024-02-13T01:49:13.355Z,98182.64
2024-02-13T01:51:45.258Z,98185.41
2024-02-13T01:54:17.374Z,98183.85
2024-02-13T01:56:50.141Z,98189.56
2024-02-13T01:59:23.631Z,98193.89
2024-02-13T02:01:56.723Z,98189.05
2024-02-13T02:04:31.258Z,98190.06
2024-02-13T02:07:04.928Z,98188.52
2024-02-13T02:09:37.065Z,98190.94
2024-02-13T02:12:10.882Z,98189.56
2024-02-13T02:14:44.606Z,98190.95
2024-02-13T02:17:16.582Z,98186.26
2024-02-13T02:19:48.395Z,98185.23
2024-02-13T02:22:20.269Z,98186.79
2024-02-13T02:24:52.016Z,98184.38
2024-02-13T02:27:23.802Z,98184.36
2024-02-13T02:29:55.612Z,98189.88
2024-02-13T02:32:29.336Z,98194.55
2024-02-13T02:35:01.274Z,98197.66
2024-02-13T02:37:36.001Z,98204.92
2024-02-13T02:40:09.663Z,98202.52
2024-02-13T02:42:41.395Z,98203.55
2024-02-13T02:45:13.441Z,98206.48
2024-02-13T02:47:45.552Z,98204.91
2024-02-13T02:50:17.605Z,98207.16
2024-02-13T02:52:49.392Z,98208.54
2024-02-13T02:55:22.577Z,98209.40
2024-02-13T02:57:54.828Z,98209.92
2024-02-13T03:00:26.961Z,98208.20
2024-02-13T03:02:58.924Z,98208.34
2024-02-13T03:05:31.239Z,98212.84
2024-02-13T03:08:06.300Z,98218.02
2024-02-13T03:10:38.143Z,98225.27
2024-02-13T03:13:10.148Z,98227.88
2024-02-13T03:15:42.253Z,98233.92
2024-02-13T03:18:14.586Z,98237.38
2024-02-13T03:20:47.432Z,98242.73
2024-02-13T03:23:19.238Z,98252.77
2024-02-13T03:25:51.080Z,98254.15
2024-02-13T03:28:23.202Z,98253.63
2024-02-13T03:30:58.039Z,98255.02
2024-02-13T03:33:29.998Z,98262.29
2024-02-13T03:36:02.114Z,98262.84
2024-02-13T03:38:33.941Z,98264.91
2024-02-13T03:41:05.869Z,98272.14
2024-02-13T03:43:38.286Z,98271.61
2024-02-13T03:46:10.101Z,98274.73
2024-02-13T03:48:42.150Z,98279.58
2024-02-13T03:51:14.429Z,98282.86
2024-02-13T03:53:46.442Z,98282.16
2024-02-13T03:56:18.343Z,98283.88
2024-02-13T03:58:50.204Z,98289.76
2024-02-13T04:01:21.991Z,98295.98
2024-02-13T04:03:53.896Z,98298.92
2024-02-13T04:06:26.557Z,98304.82
2024-02-13T04:08:58.340Z,98309.00
2024-02-13T04:11:30.289Z,98310.60
2024-02-13T04:14:02.082Z,98310.61
2024-02-13T04:16:33.848Z,98310.98
2024-02-13T04:19:05.691Z,98314.97
2024-02-13T04:21:39.263Z,98318.28
2024-02-13T04:24:11.460Z,98320.36
2024-02-13T04:26:44.035Z,98319.70
2024-02-13T04:29:15.960Z,98321.77
2024-02-13T04:31:47.791Z,98325.95
2024-02-13T04:34:19.682Z,98329.92
2024-02-13T04:36:51.678Z,98336.88
2024-02-13T04:39:23.413Z,98335.14
2024-02-13T04:41:55.289Z,98337.04
2024-02-13T04:44:27.140Z,98341.21
2024-02-13T04:46:58.905Z,98348.14
2024-02-13T04:49:30.764Z,98346.76
2024-02-13T04:52:02.656Z,98355.23
2024-02-13T04:54:34.528Z,98358.39
2024-02-13T04:57:06.806Z,98359.93
2024-02-13T04:59:49.426Z,98365.98
2024-02-13T05:02:22.780Z,98368.41
2024-02-13T05:05:12.044Z,98367.89
2024-02-13T05:07:46.040Z,98368.09
2024-02-13T05:10:17.842Z,98372.23
2024-02-13T05:12:49.631Z,98371.37
2024-02-13T05:15:22.674Z,98372.23
2024-02-13T05:17:54.588Z,98379.02
2024-02-13T05:20:26.524Z,98376.23
2024-02-13T05:23:00.146Z,98381.98
2024-02-13T05:25:32.409Z,98392.90
2024-02-13T05:28:04.280Z,98396.89
2024-02-13T05:30:36.774Z,98401.73
2024-02-13T05:33:08.968Z,98403.98
2024-02-13T05:35:42.664Z,98414.73
2024-02-13T05:38:15.224Z,98415.09
2024-02-13T05:40:46.984Z,98419.57
2024-02-13T05:43:18.775Z,98423.73
2024-02-13T05:45:50.676Z,98424.79
2024-02-13T05:48:23.397Z,98431.37
2024-02-13T05:50:55.913Z,98434.83
2024-02-13T05:53:30.079Z,98441.58
2024-02-13T05:56:02.212Z,98448.72
2024-02-13T05:58:35.024Z,98454.95
2024-02-13T06:01:08.738Z,98460.84
2024-02-13T06:03:40.754Z,98464.98
2024-02-13T06:06:12.715Z,98465.67
2024-02-13T06:08:44.611Z,98468.65
2024-02-13T06:11:16.818Z,98468.47
2024-02-13T06:13:50.545Z,98477.31
2024-02-13T06:16:22.313Z,98480.94
2024-02-13T06:18:54.182Z,98483.71
2024-02-13T06:21:27.648Z,98492.91
2024-02-13T06:24:00.068Z,98496.56
2024-02-13T06:26:33.527Z,98503.67
2024-02-13T06:29:07.923Z,98506.96
2024-02-13T06:31:39.812Z,98514.77
2024-02-13T06:34:11.833Z,98517.89
2024-02-13T06:36:43.625Z,98530.20
2024-02-13T06:39:15.540Z,98536.10
2024-02-13T06:41:47.502Z,98534.71
2024-02-13T06:44:23.416Z,98537.67
2024-02-13T06:46:55.562Z,98539.05
2024-02-13T06:49:30.846Z,98540.78
2024-02-13T06:52:05.078Z,98541.46
2024-02-13T06:54:37.038Z,98545.45
2024-02-13T06:57:09.102Z,98538.16
2024-02-13T06:59:41.901Z,98541.46
2024-02-13T07:02:13.771Z,98535.40
2024-02-13T07:04:45.606Z,98536.77
2024-02-13T07:07:28.867Z,98541.11
2024-02-13T07:10:12.416Z,98548.42
2024-02-13T07:12:44.778Z,98554.14
2024-02-13T07:15:17.215Z,98562.27
2024-02-13T07:17:56.763Z,98565.75
2024-02-13T07:20:33.041Z,98567.67
2024-02-13T07:23:05.287Z,98572.52
2024-02-13T07:25:37.099Z,98575.44
2024-02-13T07:28:09.359Z,98581.66
2024-02-13T07:30:41.287Z,98589.29
2024-02-13T07:33:13.528Z,98589.64
2024-02-13T07:35:45.531Z,98591.02
2024-02-13T07:38:17.711Z,98592.25
2024-02-13T07:40:49.658Z,98594.52
2024-02-13T07:43:21.465Z,98597.47
2024-02-13T07:45:53.243Z,98602.31
2024-02-13T07:48:25.325Z,98604.39
2024-02-13T07:50:59.025Z,98608.39
2024-02-13T07:53:31.869Z,98611.67
2024-02-13T07:56:04.887Z,98614.46
2024-02-13T07:58:36.726Z,98611.99
2024-02-13T08:01:11.061Z,98613.90
2024-02-13T08:03:43.490Z,98615.61
2024-02-13T08:06:15.434Z,98619.09
2024-02-13T08:08:47.871Z,98619.42
2024-02-13T08:11:21.886Z,98624.99
2024-02-13T08:13:55.896Z,98629.88
2024-02-13T08:16:30.484Z,98631.42
2024-02-13T08:19:02.301Z,98637.33
2024-02-13T08:21:34.099Z,98639.59
2024-02-13T08:24:06.314Z,98642.70
2024-02-13T08:26:38.282Z,98638.33
2024-02-13T08:29:10.533Z,98642.80
2024-02-13T08:31:42.547Z,98646.23
2024-02-13T08:34:14.711Z,98649.43
2024-02-13T08:36:46.667Z,98650.65
2024-02-13T08:39:18.561Z,98647.85
2024-02-13T08:41:50.398Z,98654.94
2024-02-13T08:44:22.651Z,98653.11
2024-02-13T08:46:54.951Z,98653.19
2024-02-13T08:49:26.979Z,98653.26
2024-02-13T08:51:58.970Z,98656.77
2024-02-13T08:54:30.761Z,98652.98
2024-02-13T08:57:02.577Z,98654.58
2024-02-13T08:59:34.503Z,98655.17
2024-02-13T09:02:09.888Z,98652.66
2024-02-13T09:04:41.733Z,98653.89
2024-02-13T09:07:14.020Z,98655.25
2024-02-13T09:09:46.217Z,98649.06
2024-02-13T09:12:18.135Z,98649.64
2024-02-13T09:14:49.901Z,98646.77
2024-02-13T09:17:21.826Z,98649.16
2024-02-13T09:19:54.094Z,98652.07
2024-02-13T09:22:26.114Z,98654.94
2024-02-13T09:24:59.016Z,98656.54
2024-02-13T09:27:31.048Z,98656.92
2024-02-13T09:30:02.977Z,98659.54
2024-02-13T09:32:36.924Z,98657.30
2024-02-13T09:35:10.269Z,98665.67
2024-02-13T09:37:44.595Z,98664.78
2024-02-13T09:40:17.406Z,98671.06
2024-02-13T09:42:50.432Z,98668.00
2024-02-13T09:45:22.768Z,98665.84
2024-02-13T09:48:00.335Z,98672.53
2024-02-13T09:50:38.517Z,98666.38
2024-02-13T09:53:18.800Z,98663.07
2024-02-13T09:55:50.705Z,98665.88
2024-02-13T09:58:23.531Z,98665.12
2024-02-13T10:00:59.739Z,98660.63
2024-02-13T10:03:33.334Z,98664.30
2024-02-13T10:06:05.578Z,98669.95
2024-02-13T10:08:40.385Z,98662.52
2024-02-13T10:11:15.538Z,98661.36
2024-02-13T10:13:48.686Z,98662.60
2024-02-13T10:16:25.039Z,98662.14
2024-02-13T10:18:59.597Z,98661.80
2024-02-13T10:21:31.950Z,98662.54
2024-02-13T10:24:13.015Z,98667.69
2024-02-13T10:26:45.007Z,98668.73
2024-02-13T10:29:16.921Z,98665.35
2024-02-13T10:31:48.766Z,98669.04
2024-02-13T10:34:23.196Z,98669.06
2024-02-13T10:36:57.061Z,98671.02
2024-02-13T10:39:31.223Z,98676.05
2024-02-13T10:42:07.006Z,98674.27
2024-02-13T10:44:44.848Z,98675.29
2024-02-13T10:47:20.752Z,98680.40
2024-02-13T10:49:55.837Z,98688.31
2024-02-13T10:52:28.560Z,98685.44
2024-02-13T10:55:04.872Z,98687.11
2024-02-13T10:57:39.095Z,98684.61
2024-02-13T11:00:15.963Z,98685.13
2024-02-13T11:02:50.050Z,98681.98
2024-02-13T11:05:26.449Z,98687.98
2024-02-13T11:07:58.517Z,98691.51
2024-02-13T11:10:35.780Z,98691.19
2024-02-13T11:13:10.596Z,98686.41
2024-02-13T11:15:42.884Z,98691.14
2024-02-13T11:18:15.788Z,98697.88
2024-02-13T11:20:52.024Z,98701.45
2024-02-13T11:23:31.128Z,98705.62
2024-02-13T11:26:03.793Z,98710.36
2024-02-13T11:28:42.488Z,98717.02
2024-02-13T11:31:18.150Z,98717.63
2024-02-13T11:34:07.198Z,98714.09
2024-02-13T11:36:39.532Z,98715.87
2024-02-13T11:39:11.759Z,98718.39
2024-02-13T11:41:43.686Z,98716.83
2024-02-13T11:44:17.572Z,98723.33
2024-02-13T11:46:55.544Z,98726.14
2024-02-13T11:49:28.083Z,98727.14
2024-02-13T11:52:00.279Z,98731.57
2024-02-13T11:54:35.461Z,98736.90
2024-02-13T11:57:07.779Z,98736.27
2024-02-13T11:59:41.770Z,98737.02
2024-02-13T12:02:16.639Z,98740.13
2024-02-13T12:04:50.090Z,98745.04
2024-02-13T12:07:23.142Z,98745.20
2024-02-13T12:09:55.093Z,98750.31
2024-02-13T12:12:27.219Z,98753.36
2024-02-13T12:14:59.496Z,98748.38
2024-02-13T12:17:33.602Z,98750.61
2024-02-13T12:20:13.315Z,98753.20
2024-02-13T12:22:46.828Z,98751.05
2024-02-13T12:25:22.353Z,98756.40
2024-02-13T12:28:01.528Z,98760.13
2024-02-13T12:30:34.837Z,98762.80
2024-02-13T12:33:10.247Z,98766.14
2024-02-13T12:35:45.994Z,98767.56
2024-02-13T12:38:20.397Z,98771.27
2024-02-13T12:40:52.888Z,98773.20
2024-02-13T12:43:28.363Z,98777.77
2024-02-13T12:46:03.610Z,98782.83
2024-02-13T12:48:40.681Z,98781.63
2024-02-13T12:51:13.633Z,98783.73
2024-02-13T12:53:47.115Z,98795.11
2024-02-13T12:56:19.064Z,98806.30
2024-02-13T12:58:52.987Z,98816.77
2024-02-13T13:01:25.978Z,98818.06
2024-02-13T13:03:59.345Z,98819.16
2024-02-13T13:06:34.499Z,98818.49
2024-02-13T13:09:20.108Z,98819.91
2024-02-13T13:11:59.983Z,98819.91
2024-02-13T13:14:33.103Z,98823.41
2024-02-13T13:17:05.160Z,98827.94
2024-02-13T13:19:38.743Z,98824.80
2024-02-13T13:22:13.360Z,98826.20
2024-02-13T13:24:45.346Z,98832.09
2024-02-13T13:27:19.570Z,98836.09
2024-02-13T13:29:51.439Z,98837.11
2024-02-13T13:32:23.283Z,98841.10
2024-02-13T13:34:55.226Z,98840.92
2024-02-13T13:37:29.958Z,98840.38
2024-02-13T13:40:01.741Z,98843.98
2024-02-13T13:42:36.933Z,98844.48
2024-02-13T13:45:11.434Z,98851.38
2024-02-13T13:47:43.244Z,98853.75
2024-02-13T13:50:18.862Z,98856.25
2024-02-13T13:52:52.122Z,98856.11
2024-02-13T13:55:24.124Z,98862.88
2024-02-13T13:57:56.124Z,98863.27
2024-02-13T14:00:31.147Z,98863.48
2024-02-13T14:03:03.427Z,98873.99
2024-02-13T14:05:36.754Z,98886.10
2024-02-13T14:08:10.673Z,98893.50
2024-02-13T14:10:44.593Z,98883.84
2024-02-13T14:13:18.247Z,98884.40
2024-02-13T14:15:50.841Z,98887.58
2024-02-13T14:18:22.805Z,98888.79
2024-02-13T14:20:54.907Z,98892.95
2024-02-13T14:23:28.455Z,98894.67
2024-02-13T14:26:00.356Z,98898.86
2024-02-13T14:28:32.230Z,98899.76
2024-02-13T14:31:04.292Z,98900.61
2024-02-13T14:33:36.827Z,98903.05
2024-02-13T14:36:09.368Z,98906.55
2024-02-13T14:38:42.173Z,98912.64
2024-02-13T14:41:16.392Z,98912.30
2024-02-13T14:43:49.112Z,98918.55
2024-02-13T14:46:20.909Z,98916.13
2024-02-13T14:48:53.239Z,98919.95
2024-02-13T14:51:25.311Z,98923.76
2024-02-13T14:53:57.324Z,98928.98
2024-02-13T14:56:30.295Z,98939.23
2024-02-13T14:59:02.154Z,98938.02
2024-02-13T15:01:34.110Z,98940.10
2024-02-13T15:04:07.743Z,98944.09
2024-02-13T15:06:39.840Z,98949.13
2024-02-13T15:09:12.199Z,98952.44
2024-02-13T15:11:44.105Z,98953.14
2024-02-13T15:14:15.975Z,98958.52
2024-02-13T15:16:49.582Z,98959.20
2024-02-13T15:19:22.433Z,98961.80
2024-02-13T15:21:54.663Z,98970.81
2024-02-13T15:24:26.537Z,98970.64
2024-02-13T15:26:59.980Z,98972.89
2024-02-13T15:29:33.497Z,98974.24
2024-02-13T15:32:06.040Z,98979.25
2024-02-13T15:34:42.381Z,98988.98
2024-02-13T15:37:34.246Z,98987.21
2024-02-13T15:40:24.771Z,98986.16
2024-02-13T15:43:14.144Z,98987.89
2024-02-13T15:46:03.957Z,98989.94
2024-02-13T15:48:36.164Z,98999.83
2024-02-13T15:51:10.517Z,99003.59
2024-02-13T15:53:42.800Z,99009.98
2024-02-13T15:56:15.245Z,99018.45
2024-02-13T15:58:47.011Z,99018.44
2024-02-13T16:01:19.030Z,99023.09
2024-02-13T16:03:50.828Z,99031.39
2024-02-13T16:06:22.917Z,99034.85
2024-02-13T16:08:54.867Z,99039.64
2024-02-13T16:11:26.872Z,99044.99
2024-02-13T16:14:00.115Z,99045.12
2024-02-13T16:16:31.951Z,99047.70
2024-02-13T16:19:04.648Z,99045.02
2024-02-13T16:21:36.557Z,99049.48
2024-02-13T16:24:10.134Z,99053.38
2024-02-13T16:26:42.187Z,99059.05
2024-02-13T16:29:13.989Z,99060.91
2024-02-13T16:31:45.754Z,99061.42
2024-02-13T16:34:19.781Z,99064.71
2024-02-13T16:36:51.719Z,99067.50
2024-02-13T16:39:23.870Z,99071.34
2024-02-13T16:41:59.719Z,99066.89
2024-02-13T16:44:31.676Z,99068.30
2024-02-13T16:47:05.296Z,99072.81
2024-02-13T16:49:37.321Z,99080.63
2024-02-13T16:52:09.545Z,99086.18
2024-02-13T16:54:42.120Z,99086.36
2024-02-13T16:57:14.496Z,99090.34
2024-02-13T16:59:46.928Z,99087.23
2024-02-13T17:02:18.847Z,99090.36
2024-02-13T17:04:50.670Z,99093.88
2024-02-13T17:07:22.682Z,99097.35
2024-02-13T17:09:54.601Z,99102.04
2024-02-13T17:12:27.156Z,99108.11
2024-02-13T17:14:59.180Z,99111.92
2024-02-13T17:17:31.139Z,99111.75
2024-02-13T17:20:05.075Z,99107.58
2024-02-13T17:22:36.949Z,99109.66
2024-02-13T17:25:12.414Z,99111.59
2024-02-13T17:27:44.267Z,99112.98
2024-02-13T17:30:17.156Z,99109.70
2024-02-13T17:32:50.391Z,99111.09
2024-02-13T17:35:22.408Z,99112.66
2024-02-13T17:37:54.172Z,99115.80
2024-02-13T17:40:31.750Z,99115.64
2024-02-13T17:43:03.636Z,99117.91
2024-02-13T17:45:35.829Z,99122.61
2024-02-13T17:48:11.106Z,99125.20
2024-02-13T17:50:43.047Z,99127.09
2024-02-13T17:53:15.878Z,99124.99
2024-02-13T17:55:48.026Z,99127.25
2024-02-13T17:58:19.886Z,99124.13
2024-02-13T18:00:51.702Z,99125.70
2024-02-13T18:03:23.653Z,99127.79
2024-02-13T18:05:55.667Z,99127.81
2024-02-13T18:08:27.493Z,99123.99
2024-02-13T18:10:59.549Z,99129.55
2024-02-13T18:13:31.845Z,99127.12
2024-02-13T18:16:04.802Z,99127.30
2024-02-13T18:18:36.733Z,99129.55
2024-02-13T18:21:09.266Z,99133.69
2024-02-13T18:23:41.106Z,99135.73
2024-02-13T18:26:12.919Z,99135.04
2024-02-13T18:28:47.093Z,99137.29
2024-02-13T18:31:19.980Z,99136.06
2024-02-13T18:33:52.590Z,99142.65
2024-02-13T18:36:25.279Z,99143.52
2024-02-13T18:38:57.235Z,99142.45
2024-02-13T18:41:29.521Z,99149.75
2024-02-13T18:44:01.468Z,99149.58
2024-02-13T18:46:33.391Z,99151.14
2024-02-13T18:49:05.335Z,99156.86
2024-02-13T18:51:37.249Z,99156.70
2024-02-13T18:54:09.172Z,99156.19
2024-02-13T18:56:42.243Z,99157.22
2024-02-13T18:59:14.350Z,99157.71
2024-02-13T19:01:46.657Z,99156.67
2024-02-13T19:04:18.673Z,99154.36
2024-02-13T19:06:50.974Z,99160.23
2024-02-13T19:09:22.915Z,99165.23
2024-02-13T19:11:54.746Z,99168.01
2024-02-13T19:14:26.828Z,99169.04
2024-02-13T19:16:59.496Z,99170.95
2024-02-13T19:19:31.509Z,99172.87
2024-02-13T19:22:04.415Z,99179.98
2024-02-13T19:24:36.856Z,99180.15
2024-02-13T19:27:11.050Z,99186.73
2024-02-13T19:29:43.193Z,99183.23
2024-02-13T19:32:16.500Z,99184.22
2024-02-13T19:34:48.365Z,99183.33
2024-02-13T19:37:20.446Z,99187.46
2024-02-13T19:39:52.244Z,99189.83
2024-02-13T19:42:23.993Z,99195.16
2024-02-13T19:44:55.883Z,99189.58
2024-02-13T19:47:27.933Z,99191.93
2024-02-13T19:50:00.194Z,99189.44
2024-02-13T19:52:34.349Z,99190.59
2024-02-13T19:55:07.103Z,99186.85
2024-02-13T19:57:39.011Z,99188.95
2024-02-13T20:00:12.522Z,99193.34
2024-02-13T20:02:44.529Z,99196.48
2024-02-13T20:05:18.281Z,99197.04
2024-02-13T20:07:50.630Z,99194.28
2024-02-13T20:10:23.566Z,99198.25
2024-02-13T20:12:56.389Z,99198.93
2024-02-13T20:15:28.382Z,99202.09
2024-02-13T20:18:01.198Z,99199.39
2024-02-13T20:20:33.196Z,99200.81
2024-02-13T20:23:05.169Z,99202.06
2024-02-13T20:25:37.036Z,99204.36
2024-02-13T20:28:10.725Z,99207.90
2024-02-13T20:30:42.584Z,99208.30
2024-02-13T20:33:18.411Z,99209.70
2024-02-13T20:36:02.162Z,99209.91
2024-02-13T20:38:40.047Z,99212.36
2024-02-13T20:41:12.413Z,99213.27
2024-02-13T20:43:45.097Z,99217.98
2024-02-13T20:46:19.755Z,99222.71
2024-02-13T20:48:51.771Z,99224.14
2024-02-13T20:51:23.662Z,99224.34
2024-02-13T20:53:55.487Z,99228.39
2024-02-13T20:56:27.359Z,99231.73
2024-02-13T20:59:00.915Z,99232.67
2024-02-13T21:01:39.515Z,99233.96
2024-02-13T21:04:11.640Z,99233.31
2024-02-13T21:06:44.851Z,99231.51
2024-02-13T21:09:17.756Z,99230.21
2024-02-13T21:11:49.689Z,99231.10
2024-02-13T21:14:21.909Z,99231.50
2024-02-13T21:16:53.709Z,99232.23
2024-02-13T21:19:25.603Z,99237.64
2024-02-13T21:22:14.676Z,99238.95
2024-02-13T21:24:47.186Z,99239.16
2024-02-13T21:27:19.098Z,99241.34
2024-02-13T21:29:51.554Z,99246.09
2024-02-13T21:32:23.680Z,99244.75
2024-02-13T21:34:55.565Z,99249.68
2024-02-13T21:37:27.378Z,99255.60
2024-02-13T21:39:59.160Z,99252.05
2024-02-13T21:42:31.262Z,99250.94
2024-02-13T21:45:03.631Z,99247.89
2024-02-13T21:47:36.421Z,99252.27
2024-02-13T21:50:09.789Z,99248.41
2024-02-13T21:52:42.056Z,99252.27
2024-02-13T21:55:14.025Z,99253.36
2024-02-13T21:57:45.794Z,99250.48
2024-02-13T22:00:19.426Z,99256.54
2024-02-13T22:02:51.355Z,99257.96
2024-02-13T22:05:23.631Z,99259.74
2024-02-13T22:07:55.472Z,99261.88
2024-02-13T22:10:27.272Z,99263.84
2024-02-13T22:12:59.076Z,99264.79
2024-02-13T22:15:30.926Z,99267.96
2024-02-13T22:18:03.463Z,99266.52
2024-02-13T22:20:38.199Z,99268.33
2024-02-13T22:23:11.199Z,99275.14
2024-02-13T22:25:43.929Z,99275.55
2024-02-13T22:28:17.320Z,99278.84
2024-02-13T22:30:49.111Z,99285.75
2024-02-13T22:33:22.011Z,99283.41
2024-02-13T22:35:55.380Z,99283.29
2024-02-13T22:38:27.344Z,99284.01
2024-02-13T22:40:59.098Z,99284.45
2024-02-13T22:43:33.220Z,99288.70
2024-02-13T22:46:05.770Z,99292.07
2024-02-13T22:48:37.767Z,99292.00
2024-02-13T22:51:09.665Z,99289.96
2024-02-13T22:53:41.691Z,99289.05
2024-02-13T22:56:13.510Z,99290.74
2024-02-13T22:58:45.462Z,99292.20
2024-02-13T23:01:17.268Z,99291.92
2024-02-13T23:03:50.861Z,99292.39
2024-02-13T23:06:22.967Z,99292.84
2024-02-13T23:08:54.887Z,99290.85
2024-02-13T23:11:26.839Z,99297.81
2024-02-13T23:13:58.754Z,99304.09
2024-02-13T23:16:30.894Z,99304.55
2024-02-13T23:19:05.614Z,99312.09
2024-02-13T23:21:38.056Z,99305.65
2024-02-13T23:24:11.775Z,99308.70
2024-02-13T23:26:43.734Z,99304.04
2024-02-13T23:29:15.975Z,99306.77
2024-02-13T23:31:47.778Z,99306.71
2024-02-13T23:34:19.792Z,99306.02
2024-02-13T23:36:51.609Z,99309.30
2024-02-13T23:39:23.390Z,99307.11
2024-02-13T23:41:55.216Z,99311.87
2024-02-13T23:44:27.793Z,99313.25
2024-02-13T23:46:59.827Z,99314.98
2024-02-13T23:49:31.753Z,99312.71
2024-02-13T23:52:03.915Z,99315.64
2024-02-13T23:54:36.567Z,99318.39
2024-02-13T23:57:10.659Z,99311.44
2024-02-13T23:59:43.107Z,99314.02
